This is the latest recevied weather packets stored in our database for station/object DB0SWS-13. If no packets are shown the sender has not sent any weather packets the latest 10 day(s).
| Time | Temp. | Humidity | Pressure | Rain* | Wind** | Luminosity | Snow |
|---|---|---|---|---|---|---|---|
| 1787421105 | 20° C | 48% | 1024.6 hPa | - | - | - | - |
| 1787420205 | 21.67° C | 42% | 1024.6 hPa | - | - | - | - |
| 1787419304 | 31.11° C | 24% | 1024.4 hPa | - | - | - | - |
| 1787418407 | 25° C | 35% | 1024.4 hPa | - | - | - | - |
| 1787417507 | 23.89° C | 37% | 1024.4 hPa | - | - | - | - |
| 1787416607 | 23.33° C | 38% | 1024.4 hPa | - | - | - | - |
| 1787415707 | 21.67° C | 43% | 1024.3 hPa | - | - | - | - |
| 1787414806 | 21.67° C | 45% | 1024.4 hPa | - | - | - | - |
| 1787413906 | 22.22° C | 43% | 1024.4 hPa | - | - | - | - |
| 1787413006 | 22.78° C | 41% | 1024.4 hPa | - | - | - | - |
| 1787412106 | 21.67° C | 42% | 1024.4 hPa | - | - | - | - |
| 1787411206 | 22.22° C | 42% | 1024.4 hPa | - | - | - | - |
| 1787410306 | 21.67° C | 43% | 1024.4 hPa | - | - | - | - |
| 1787409406 | 20° C | 47% | 1024.4 hPa | - | - | - | - |
| 1787408506 | 18.89° C | 51% | 1024.6 hPa | - | - | - | - |
| 1787407606 | 19.44° C | 50% | 1024.6 hPa | - | - | - | - |
| 1787406706 | 19.44° C | 53% | 1024.5 hPa | - | - | - | - |
| 1787405806 | 20.56° C | 50% | 1024.5 hPa | - | - | - | - |
| 1787404906 | 20.56° C | 52% | 1024.6 hPa | - | - | - | - |
| 1787404005 | 17.78° C | 56% | 1024.6 hPa | - | - | - | - |
| 1787403105 | 17.78° C | 59% | 1024.5 hPa | - | - | - | - |
| 1787402205 | 17.78° C | 62% | 1024.5 hPa | - | - | - | - |
| 1787401305 | 18.33° C | 60% | 1024.6 hPa | - | - | - | - |
| 1787400404 | 17.78° C | 57% | 1024.6 hPa | - | - | - | - |
| 1787399504 | 19.44° C | 58% | 1024.6 hPa | - | - | - | - |
* Rain since midnight (hover to see other rain measurements)
** Current wind speed in m/s (hover to see current wind gust speed)